Time;durP1;ratioP1;P1;durP2;ratioP2;P2;SDS_P1;SDS_P2;PMS_P1;PMS_P2;Temp;Humidity;BMP_temperature;BMP_pressure;BME280_temperature;BME280_humidity;BME280_pressure;Samples;Min_cycle;Max_cycle;Signal;HPM_P1;HPM_P2
2024/01/18 00:00:28;;;;;;;17.05;9.07;;;1.70;99.90;;;;;;5076351;28;20123;-86
2024/01/18 00:02:54;;;;;;;17.20;9.50;;;2.10;99.90;;;;;;5067586;28;20107;-85
2024/01/18 00:05:35;;;;;;;15.40;8.18;;;1.80;99.90;;;;;;5076949;28;20583;-86
2024/01/18 00:08:00;;;;;;;15.38;7.90;;;1.70;99.90;;;;;;5076827;28;20066;-85
2024/01/18 00:10:48;;;;;;;13.02;7.90;;;1.80;99.90;;;;;;5078034;28;20484;-86
2024/01/18 00:13:19;;;;;;;13.43;8.43;;;1.80;99.90;;;;;;5076750;28;20529;-85
2024/01/18 00:15:45;;;;;;;16.25;7.55;;;1.80;99.90;;;;;;5077802;28;20472;-85
2024/01/18 00:18:19;;;;;;;22.33;7.88;;;2.40;99.90;;;;;;5078151;28;20024;-85
2024/01/18 00:21:04;;;;;;;15.20;7.40;;;2.50;99.90;;;;;;5077818;28;20040;-85
2024/01/18 00:23:30;;;;;;;14.40;7.90;;;1.90;99.90;;;;;;5070165;28;20043;-86
2024/01/18 00:25:56;;;;;;;16.55;7.60;;;1.80;99.90;;;;;;5076948;28;20032;-86
2024/01/18 00:28:27;;;;;;;13.05;7.68;;;2.80;99.90;;;;;;5077025;28;20020;-85
2024/01/18 00:30:53;;;;;;;18.92;8.43;;;1.70;99.90;;;;;;5078097;28;20026;-85
2024/01/18 00:33:25;;;;;;;19.17;7.50;;;1.70;99.90;;;;;;5078154;28;20036;-86
2024/01/18 00:35:51;;;;;;;16.73;7.45;;;1.70;99.90;;;;;;5077401;28;20136;-85
2024/01/18 00:38:16;;;;;;;10.65;7.72;;;1.60;99.90;;;;;;5078263;28;20480;-85
2024/01/18 00:40:42;;;;;;;16.38;7.13;;;1.80;99.90;;;;;;5078228;28;20029;-86
2024/01/18 00:43:08;;;;;;;17.55;8.13;;;1.70;99.90;;;;;;5077898;28;20472;-85
2024/01/18 00:45:51;;;;;;;11.05;7.00;;;1.70;99.90;;;;;;5072534;28;20093;-85
2024/01/18 00:48:17;;;;;;;13.73;6.93;;;2.60;99.90;;;;;;5076195;28;20020;-85
2024/01/18 00:50:43;;;;;;;11.60;7.40;;;2.60;99.90;;;;;;5077514;28;20047;-85
2024/01/18 00:53:08;;;;;;;11.85;6.78;;;2.40;99.90;;;;;;5076694;28;20124;-85
2024/01/18 00:55:34;;;;;;;13.10;7.22;;;1.60;99.90;;;;;;5073292;28;20021;-86
2024/01/18 00:58:17;;;;;;;7.32;6.20;;;1.50;99.90;;;;;;5074884;28;20028;-86
2024/01/18 01:00:43;;;;;;;11.48;6.18;;;1.50;99.90;;;;;;5074457;28;20043;-86
2024/01/18 01:03:09;;;;;;;12.57;6.40;;;1.90;99.90;;;;;;5074206;28;20017;-86
2024/01/18 01:05:34;;;;;;;11.20;6.28;;;1.40;99.90;;;;;;5071878;28;20038;-86
2024/01/18 01:08:09;;;;;;;10.50;5.72;;;1.50;99.90;;;;;;5063850;28;20062;-86
2024/01/18 01:10:34;;;;;;;18.15;6.60;;;1.50;99.90;;;;;;5053355;28;20507;-86
2024/01/18 01:13:09;;;;;;;8.80;6.45;;;1.50;99.90;;;;;;5053844;28;20053;-86
2024/01/18 01:15:53;;;;;;;12.43;6.28;;;2.10;99.90;;;;;;5054622;28;20021;-86
2024/01/18 01:18:22;;;;;;;14.25;5.53;;;2.60;99.90;;;;;;5053858;28;20044;-86
2024/01/18 01:20:54;;;;;;;5.82;4.13;;;1.30;99.90;;;;;;5054306;28;20094;-86
2024/01/18 01:23:29;;;;;;;10.77;6.38;;;1.40;99.90;;;;;;5054536;28;20028;-86
2024/01/18 01:25:55;;;;;;;14.38;5.80;;;2.00;99.90;;;;;;5054267;28;20030;-86
2024/01/18 01:28:27;;;;;;;9.90;5.15;;;2.10;99.90;;;;;;5063880;28;20491;-86
2024/01/18 01:30:52;;;;;;;7.60;5.97;;;1.30;99.90;;;;;;5060750;28;20057;-86
2024/01/18 01:33:30;;;;;;;9.88;5.03;;;2.80;99.90;;;;;;5053384;28;20075;-87
2024/01/18 01:35:56;;;;;;;12.95;5.43;;;1.40;99.90;;;;;;5054004;28;20550;-87
2024/01/18 01:38:22;;;;;;;7.85;5.07;;;1.40;99.90;;;;;;5053672;28;20033;-85
2024/01/18 01:40:47;;;;;;;10.27;4.93;;;1.30;99.90;;;;;;5053540;28;20090;-85
2024/01/18 01:43:19;;;;;;;7.13;4.75;;;2.30;99.90;;;;;;5054154;28;20124;-86
2024/01/18 01:45:48;;;;;;;12.27;4.95;;;1.30;99.90;;;;;;5053327;28;20056;-85
2024/01/18 01:48:13;;;;;;;9.68;4.60;;;1.20;99.90;;;;;;5060457;28;20025;-86
2024/01/18 01:50:39;;;;;;;7.53;4.50;;;1.40;99.90;;;;;;5067904;28;20031;-85
2024/01/18 01:53:07;;;;;;;8.65;4.85;;;1.30;99.90;;;;;;5073259;28;20067;-86
2024/01/18 01:55:43;;;;;;;13.20;5.22;;;2.50;99.90;;;;;;5072631;28;20024;-86
2024/01/18 01:58:22;;;;;;;16.52;5.40;;;1.30;99.90;;;;;;5073971;28;20407;-86
2024/01/18 02:00:48;;;;;;;11.85;5.25;;;1.30;99.90;;;;;;5072492;28;20036;-86
2024/01/18 02:03:13;;;;;;;10.48;4.65;;;1.50;99.90;;;;;;5073291;28;20023;-87
2024/01/18 02:05:39;;;;;;;9.98;4.60;;;1.50;99.90;;;;;;5072496;28;20025;-86
2024/01/18 02:08:05;;;;;;;9.73;4.75;;;1.50;99.90;;;;;;5064700;28;20072;-86
2024/01/18 02:10:31;;;;;;;9.82;5.15;;;1.00;99.90;;;;;;5067076;28;20024;-86
2024/01/18 02:12:59;;;;;;;8.27;4.72;;;2.50;99.90;;;;;;5072260;28;20080;-84
2024/01/18 02:15:25;;;;;;;7.57;4.30;;;1.50;99.90;;;;;;5073295;28;20028;-85
2024/01/18 02:17:50;;;;;;;10.15;4.38;;;1.40;99.90;;;;;;5073068;28;20047;-85
2024/01/18 02:20:16;;;;;;;9.15;5.15;;;1.40;99.90;;;;;;5072478;28;20043;-85
2024/01/18 02:22:43;;;;;;;16.55;4.60;;;1.40;99.90;;;;;;5073831;28;20055;-86
2024/01/18 02:25:25;;;;;;;9.55;4.10;;;1.40;99.90;;;;;;5075721;28;20055;-85
2024/01/18 02:27:56;;;;;;;6.05;3.47;;;1.40;99.90;;;;;;5075939;28;20076;-86
2024/01/18 02:30:22;;;;;;;10.00;3.60;;;1.30;99.90;;;;;;5077759;28;20059;-86
2024/01/18 02:32:47;;;;;;;6.20;3.65;;;1.20;99.90;;;;;;5078549;28;20469;-86
2024/01/18 02:35:14;;;;;;;8.90;3.30;;;1.60;99.90;;;;;;5080391;28;20020;-87
2024/01/18 02:37:43;;;;;;;10.60;2.55;;;1.10;99.90;;;;;;5078446;28;20043;-86
2024/01/18 02:40:08;;;;;;;5.72;2.13;;;1.10;99.90;;;;;;5087231;28;20062;-86
2024/01/18 02:42:34;;;;;;;3.80;2.55;;;1.10;99.90;;;;;;5075241;28;20024;-87
2024/01/18 02:45:03;;;;;;;6.68;3.10;;;1.20;99.90;;;;;;5073057;28;20032;-87
2024/01/18 02:47:29;;;;;;;6.55;2.53;;;1.10;99.90;;;;;;5072832;28;20093;-87
2024/01/18 02:49:58;;;;;;;5.22;2.50;;;1.10;99.90;;;;;;5068503;28;20036;-86
2024/01/18 02:52:23;;;;;;;5.10;1.70;;;1.10;99.90;;;;;;5060396;28;20086;-86
2024/01/18 02:54:49;;;;;;;4.25;2.05;;;1.10;99.90;;;;;;5071703;28;20021;-86
2024/01/18 02:57:14;;;;;;;2.20;1.55;;;1.10;99.90;;;;;;5072482;28;20123;-86
2024/01/18 02:59:40;;;;;;;5.47;2.10;;;1.10;99.90;;;;;;5072493;28;20423;-88
2024/01/18 03:02:06;;;;;;;2.47;1.90;;;1.10;99.90;;;;;;5071976;28;20434;-86
2024/01/18 03:04:31;;;;;;;7.90;2.17;;;1.10;99.90;;;;;;5072321;28;20052;-86
2024/01/18 03:06:57;;;;;;;4.28;1.60;;;1.10;99.90;;;;;;5071918;28;20021;-87
2024/01/18 03:09:23;;;;;;;1.85;1.42;;;1.10;99.90;;;;;;5071645;28;20024;-86
2024/01/18 03:11:49;;;;;;;10.98;1.60;;;1.10;99.90;;;;;;5045294;28;20041;-86
2024/01/18 03:14:14;;;;;;;4.90;1.65;;;1.60;99.90;;;;;;5071158;28;20421;-86
2024/01/18 03:16:42;;;;;;;2.08;1.20;;;1.10;99.90;;;;;;5071042;28;20036;-86
2024/01/18 03:19:12;;;;;;;6.43;1.15;;;1.00;99.90;;;;;;5071833;28;20040;-86
2024/01/18 03:21:38;;;;;;;6.85;1.40;;;1.90;99.90;;;;;;5072252;28;20065;-86
2024/01/18 03:24:03;;;;;;;5.13;1.80;;;1.10;99.90;;;;;;5071663;28;20093;-86
2024/01/18 03:26:35;;;;;;;3.30;1.10;;;1.00;99.90;;;;;;5071907;28;20617;-86
2024/01/18 03:29:00;;;;;;;3.80;2.53;;;1.60;99.90;;;;;;5072391;28;20143;-86
2024/01/18 03:31:26;;;;;;;3.53;1.27;;;1.70;99.90;;;;;;5069979;28;20169;-86
2024/01/18 03:33:52;;;;;;;2.85;1.02;;;1.10;99.90;;;;;;5055057;28;20395;-86
2024/01/18 03:36:27;;;;;;;3.15;1.38;;;1.00;99.90;;;;;;5071207;28;20023;-86
2024/01/18 03:38:55;;;;;;;5.10;1.83;;;1.10;99.90;;;;;;5070762;28;20587;-86
2024/01/18 03:41:21;;;;;;;6.82;2.08;;;2.10;99.90;;;;;;5071989;28;20120;-86
2024/01/18 03:43:46;;;;;;;3.22;1.30;;;1.90;99.90;;;;;;5071611;28;20559;-86
2024/01/18 03:46:14;;;;;;;3.67;1.55;;;1.90;99.90;;;;;;5071275;28;20035;-85
2024/01/18 03:48:39;;;;;;;9.65;1.10;;;1.00;99.90;;;;;;5071451;28;20024;-85
2024/01/18 03:51:06;;;;;;;2.90;1.23;;;1.10;99.90;;;;;;5071228;28;20024;-86
2024/01/18 03:53:31;;;;;;;3.03;0.95;;;1.70;99.90;;;;;;5070368;28;20407;-86
2024/01/18 03:56:12;;;;;;;1.42;0.80;;;1.00;99.90;;;;;;5058885;28;20032;-86
2024/01/18 03:58:54;;;;;;;2.63;0.90;;;1.90;99.90;;;;;;5051016;28;20544;-84
2024/01/18 04:01:19;;;;;;;3.22;1.00;;;1.60;99.90;;;;;;5051292;28;20512;-81
2024/01/18 04:03:48;;;;;;;3.90;1.05;;;1.00;99.90;;;;;;5051344;28;20025;-85
2024/01/18 04:06:14;;;;;;;1.35;0.68;;;1.00;99.90;;;;;;5051218;28;20025;-86
2024/01/18 04:08:39;;;;;;;5.35;0.77;;;1.00;99.90;;;;;;5051826;28;20025;-86
2024/01/18 04:11:05;;;;;;;2.38;0.80;;;1.00;99.90;;;;;;5051951;28;20036;-86
2024/01/18 04:13:31;;;;;;;2.63;0.85;;;1.00;99.90;;;;;;5050458;28;20076;-85
2024/01/18 04:15:57;;;;;;;1.20;0.85;;;1.00;99.90;;;;;;5052979;28;20408;-86
2024/01/18 04:18:22;;;;;;;2.08;0.95;;;0.90;99.90;;;;;;5067084;28;20024;-85
2024/01/18 04:20:52;;;;;;;1.23;0.73;;;1.80;99.90;;;;;;5070531;28;20365;-86
2024/01/18 04:23:19;;;;;;;7.13;1.37;;;0.70;99.90;;;;;;5071694;28;20025;-87
2024/01/18 04:25:45;;;;;;;3.13;0.70;;;0.70;99.90;;;;;;5071701;28;20107;-86
2024/01/18 04:28:10;;;;;;;0.93;0.60;;;0.70;99.90;;;;;;5070533;28;20024;-86
2024/01/18 04:30:36;;;;;;;2.85;0.73;;;0.60;99.90;;;;;;5072407;28;20035;-86
2024/01/18 04:33:01;;;;;;;1.25;0.80;;;0.70;99.90;;;;;;5074800;28;20553;-86
2024/01/18 04:35:27;;;;;;;1.33;1.08;;;0.70;99.90;;;;;;5073554;28;20064;-86
2024/01/18 04:37:52;;;;;;;3.92;1.13;;;0.70;99.90;;;;;;5061717;28;20032;-85
2024/01/18 04:40:18;;;;;;;1.88;0.98;;;0.70;99.90;;;;;;5053076;28;20423;-86
2024/01/18 04:42:44;;;;;;;1.55;0.80;;;0.70;99.90;;;;;;5054096;28;20388;-86
2024/01/18 04:45:10;;;;;;;23.85;1.67;;;0.80;99.90;;;;;;5055040;28;20025;-85
2024/01/18 04:47:36;;;;;;;3.45;1.20;;;0.80;99.90;;;;;;5053975;28;20408;-87
2024/01/18 04:50:03;;;;;;;3.15;1.08;;;0.80;99.90;;;;;;5054710;28;20078;-86
2024/01/18 04:52:29;;;;;;;1.52;0.93;;;0.90;99.90;;;;;;5054710;28;20081;-86
2024/01/18 04:54:56;;;;;;;8.60;2.90;;;0.90;99.90;;;;;;5053930;28;20120;-87
2024/01/18 04:57:22;;;;;;;2.40;1.10;;;0.90;99.90;;;;;;5060356;28;20063;-86
2024/01/18 04:59:48;;;;;;;3.78;1.08;;;0.90;99.90;;;;;;5074229;28;20056;-86
2024/01/18 05:02:13;;;;;;;1.90;1.60;;;0.90;99.90;;;;;;5064312;28;20208;-86
2024/01/18 05:04:39;;;;;;;2.25;1.13;;;1.00;99.90;;;;;;5067360;28;20503;-86
2024/01/18 05:07:05;;;;;;;1.33;0.80;;;1.00;99.90;;;;;;5070455;28;20486;-85
2024/01/18 05:09:31;;;;;;;2.10;0.73;;;1.70;99.90;;;;;;5069578;28;20032;-86
2024/01/18 05:11:56;;;;;;;3.50;0.68;;;1.00;99.90;;;;;;5071118;28;20048;-85
2024/01/18 05:14:22;;;;;;;4.25;1.10;;;1.10;99.90;;;;;;5069872;28;20027;-85
2024/01/18 05:16:51;;;;;;;3.80;0.95;;;1.10;99.90;;;;;;5069305;28;20032;-85
2024/01/18 05:19:17;;;;;;;2.42;1.00;;;1.10;99.90;;;;;;5062413;28;20040;-86
2024/01/18 05:21:43;;;;;;;0.70;0.60;;;1.10;99.90;;;;;;5078174;22;20122;-86
2024/01/18 05:24:09;;;;;;;3.22;1.20;;;2.00;99.90;;;;;;5063228;28;20028;-85
2024/01/18 05:26:34;;;;;;;1.38;0.90;;;0.90;99.90;;;;;;5056588;28;20033;-86
2024/01/18 05:29:00;;;;;;;4.07;0.57;;;0.90;99.90;;;;;;5060954;28;20025;-84
2024/01/18 05:31:25;;;;;;;5.68;1.17;;;1.10;99.90;;;;;;5059907;28;20029;-85
2024/01/18 05:33:51;;;;;;;4.25;1.05;;;1.10;99.90;;;;;;5063728;28;20028;-85
2024/01/18 05:36:17;;;;;;;6.97;0.90;;;1.00;99.90;;;;;;5061526;28;20365;-85
2024/01/18 05:38:42;;;;;;;1.08;0.70;;;1.00;99.90;;;;;;5055855;28;20086;-85
2024/01/18 05:41:10;;;;;;;2.72;1.10;;;0.90;99.90;;;;;;5061839;28;20157;-85
2024/01/18 05:43:36;;;;;;;3.85;1.00;;;0.90;99.90;;;;;;5068076;28;20099;-86
2024/01/18 05:46:02;;;;;;;5.38;0.82;;;0.80;99.90;;;;;;5063543;28;20115;-86
2024/01/18 05:48:29;;;;;;;1.95;1.10;;;0.80;99.90;;;;;;5064094;28;20020;-85
2024/01/18 05:50:54;;;;;;;2.55;1.00;;;0.80;99.90;;;;;;5059517;28;20385;-85
2024/01/18 05:53:20;;;;;;;4.93;1.20;;;0.80;99.90;;;;;;5067678;28;20033;-85
2024/01/18 05:55:45;;;;;;;3.88;1.05;;;0.70;99.90;;;;;;5061054;28;20120;-85
2024/01/18 05:58:12;;;;;;;2.10;1.00;;;0.60;99.90;;;;;;5059937;28;20056;-84
2024/01/18 06:00:37;;;;;;;1.77;1.20;;;0.60;99.90;;;;;;5060321;28;20037;-85
2024/01/18 06:03:03;;;;;;;10.15;4.13;;;0.50;99.90;;;;;;5064607;28;20036;-85
2024/01/18 06:05:28;;;;;;;2.33;1.08;;;0.50;99.90;;;;;;5062307;28;20032;-85
2024/01/18 06:07:54;;;;;;;3.05;0.90;;;0.40;99.90;;;;;;5058606;28;20029;-84
2024/01/18 06:10:20;;;;;;;4.65;1.92;;;0.40;99.90;;;;;;5063927;28;20035;-85
2024/01/18 06:12:46;;;;;;;5.07;1.02;;;0.40;99.90;;;;;;5059813;28;20384;-85
2024/01/18 06:15:11;;;;;;;2.75;1.30;;;0.40;99.90;;;;;;5064086;28;20117;-85
2024/01/18 06:17:37;;;;;;;1.65;1.13;;;0.40;99.90;;;;;;5056169;28;20117;-85
2024/01/18 06:20:03;;;;;;;2.35;1.30;;;0.50;99.90;;;;;;5058738;28;20041;-85
2024/01/18 06:22:29;;;;;;;3.92;1.30;;;0.50;99.90;;;;;;5068569;28;20040;-85
2024/01/18 06:24:54;;;;;;;2.72;1.00;;;0.50;99.90;;;;;;5062290;28;20029;-85
2024/01/18 06:27:20;;;;;;;6.68;1.40;;;0.50;99.90;;;;;;5060549;28;20479;-85
2024/01/18 06:29:45;;;;;;;2.47;1.13;;;0.50;99.90;;;;;;5062785;28;20384;-85
2024/01/18 06:32:11;;;;;;;4.15;1.70;;;0.50;99.90;;;;;;5062091;28;20021;-85
2024/01/18 06:34:37;;;;;;;3.30;1.70;;;0.50;99.90;;;;;;5055407;28;20044;-85
2024/01/18 06:37:03;;;;;;;2.75;1.30;;;0.40;99.90;;;;;;5068292;28;20021;-85
2024/01/18 06:39:29;;;;;;;2.67;1.05;;;0.40;99.90;;;;;;5063242;28;20560;-85
2024/01/18 06:41:54;;;;;;;6.10;1.20;;;0.40;99.90;;;;;;5057985;28;20041;-85
2024/01/18 06:44:20;;;;;;;4.03;1.30;;;0.40;99.90;;;;;;5059343;28;20024;-85
2024/01/18 06:46:45;;;;;;;3.97;1.10;;;0.30;99.90;;;;;;5064308;28;20476;-85
2024/01/18 06:49:11;;;;;;;5.07;1.10;;;0.40;99.90;;;;;;5061800;28;20472;-86
2024/01/18 06:51:37;;;;;;;3.30;1.25;;;0.30;99.90;;;;;;5062555;28;20035;-86
2024/01/18 06:54:03;;;;;;;3.22;1.52;;;0.20;99.90;;;;;;5056790;28;20033;-86
2024/01/18 06:56:28;;;;;;;3.55;1.33;;;0.20;99.90;;;;;;5056960;28;20526;-85
2024/01/18 06:58:54;;;;;;;2.38;0.90;;;0.20;99.90;;;;;;5062646;28;20490;-85
2024/01/18 07:01:19;;;;;;;7.40;1.48;;;0.20;99.90;;;;;;5062254;28;20400;-85
2024/01/18 07:03:45;;;;;;;5.70;0.93;;;0.10;99.90;;;;;;5058758;28;20374;-86
2024/01/18 07:06:11;;;;;;;4.00;1.23;;;0.20;99.90;;;;;;5062956;28;20025;-85
2024/01/18 07:08:37;;;;;;;3.38;0.90;;;0.20;99.90;;;;;;5065480;28;20043;-86
2024/01/18 07:11:04;;;;;;;2.60;1.15;;;0.20;99.90;;;;;;5063973;28;20072;-86
2024/01/18 07:13:29;;;;;;;6.80;1.52;;;0.30;99.90;;;;;;5061918;28;20138;-86
2024/01/18 07:15:55;;;;;;;4.60;1.75;;;0.30;99.90;;;;;;5058897;28;20445;-85
2024/01/18 07:18:20;;;;;;;5.60;2.72;;;0.30;99.90;;;;;;5058920;28;20016;-86
2024/01/18 07:20:46;;;;;;;4.68;2.13;;;1.10;99.90;;;;;;5058351;28;20182;-87
2024/01/18 07:23:13;;;;;;;6.03;2.20;;;0.40;99.90;;;;;;5057869;28;20033;-87
2024/01/18 07:25:39;;;;;;;2.60;1.38;;;0.40;99.90;;;;;;5062487;28;20032;-88
2024/01/18 07:28:04;;;;;;;2.80;1.58;;;0.30;99.90;;;;;;5063321;28;20024;-87
2024/01/18 07:30:30;;;;;;;3.67;1.33;;;0.30;99.90;;;;;;5065362;28;20032;-86
2024/01/18 07:32:55;;;;;;;3.88;1.70;;;0.30;99.90;;;;;;5057159;28;20116;-86
2024/01/18 07:35:21;;;;;;;5.53;1.35;;;0.30;99.90;;;;;;5058268;28;20395;-87
2024/01/18 07:37:46;;;;;;;1.58;1.48;;;0.30;99.90;;;;;;5053856;28;20473;-86
2024/01/18 07:40:12;;;;;;;4.57;1.45;;;0.30;99.90;;;;;;5060595;28;20481;-87
2024/01/18 07:42:38;;;;;;;4.85;1.40;;;0.20;99.90;;;;;;5060669;28;20044;-86
2024/01/18 07:45:04;;;;;;;6.50;1.80;;;0.20;99.90;;;;;;5059671;28;20059;-87
2024/01/18 07:47:29;;;;;;;1.80;0.80;;;0.20;99.90;;;;;;5063684;28;20487;-87
2024/01/18 07:49:55;;;;;;;3.20;1.55;;;0.20;99.90;;;;;;5055307;28;20048;-87
2024/01/18 07:52:20;;;;;;;3.53;1.42;;;0.20;99.90;;;;;;5054346;28;20453;-87
2024/01/18 07:54:49;;;;;;;6.78;1.58;;;0.10;99.90;;;;;;5058565;28;20377;-87
2024/01/18 07:57:14;;;;;;;2.78;1.50;;;0.20;99.90;;;;;;5059914;28;20187;-86
2024/01/18 07:59:40;;;;;;;2.28;1.50;;;0.20;99.90;;;;;;5057533;28;20087;-88
2024/01/18 08:02:06;;;;;;;5.55;1.63;;;0.20;99.90;;;;;;5061889;28;20056;-86
2024/01/18 08:04:31;;;;;;;4.22;1.85;;;0.20;99.90;;;;;;5056021;28;20033;-84
2024/01/18 08:06:57;;;;;;;3.22;1.92;;;0.30;99.90;;;;;;5073342;28;20052;-86
2024/01/18 08:09:22;;;;;;;3.80;1.30;;;1.30;99.90;;;;;;5067730;28;20021;-86
2024/01/18 08:11:49;;;;;;;2.88;1.27;;;0.20;99.90;;;;;;5070896;28;20158;-86
2024/01/18 08:14:14;;;;;;;5.55;1.55;;;0.30;99.90;;;;;;5070561;28;20150;-86
2024/01/18 08:16:40;;;;;;;3.58;1.45;;;0.20;99.90;;;;;;5072999;28;20107;-87
2024/01/18 08:19:07;;;;;;;6.10;1.88;;;0.30;99.90;;;;;;5070948;28;20024;-87
2024/01/18 08:21:32;;;;;;;2.65;1.58;;;0.30;99.90;;;;;;5064301;28;20045;-85
2024/01/18 08:23:58;;;;;;;4.93;1.60;;;0.30;99.90;;;;;;5054137;28;20028;-85
2024/01/18 08:26:24;;;;;;;5.45;1.73;;;0.30;99.90;;;;;;5058250;28;20178;-87
2024/01/18 08:28:49;;;;;;;5.53;1.70;;;0.30;99.90;;;;;;5062228;28;20488;-86
2024/01/18 08:31:15;;;;;;;3.92;2.03;;;0.30;99.90;;;;;;5058024;28;20021;-85
2024/01/18 08:33:41;;;;;;;12.35;2.63;;;0.30;99.90;;;;;;5059805;28;20027;-86
2024/01/18 08:36:08;;;;;;;8.88;2.03;;;0.50;99.90;;;;;;5063228;28;20028;-87
2024/01/18 08:38:34;;;;;;;10.40;4.95;;;0.40;99.90;;;;;;5060005;28;20125;-86
2024/01/18 08:40:59;;;;;;;5.22;2.30;;;0.40;99.90;;;;;;5063367;28;20076;-85
2024/01/18 08:43:27;;;;;;;7.28;2.85;;;0.40;99.90;;;;;;5060960;28;20028;-86
2024/01/18 08:45:55;;;;;;;6.80;2.53;;;0.50;99.90;;;;;;5060786;28;20070;-85
2024/01/18 08:48:21;;;;;;;8.70;3.30;;;0.40;99.90;;;;;;5065684;28;20384;-86
2024/01/18 08:50:47;;;;;;;6.18;2.50;;;0.50;99.90;;;;;;5059987;28;20029;-86
2024/01/18 08:53:12;;;;;;;4.60;2.70;;;0.50;99.90;;;;;;5061290;28;20444;-86
2024/01/18 08:55:40;;;;;;;5.38;2.63;;;0.60;99.90;;;;;;5072218;28;20486;-86
2024/01/18 08:58:07;;;;;;;6.57;2.95;;;0.60;99.90;;;;;;5075197;28;20021;-84
2024/01/18 09:00:32;;;;;;;6.95;3.20;;;0.60;99.90;;;;;;5074197;28;20036;-85
2024/01/18 09:02:58;;;;;;;6.05;3.13;;;0.60;99.90;;;;;;5091707;28;20027;-86
2024/01/18 09:05:24;;;;;;;9.25;3.58;;;0.70;99.90;;;;;;5075280;28;20031;-84
2024/01/18 09:07:51;;;;;;;14.32;3.30;;;0.70;99.90;;;;;;5074011;28;20031;-84
2024/01/18 09:10:16;;;;;;;6.88;2.45;;;0.70;99.90;;;;;;5073984;28;20032;-84
2024/01/18 09:12:43;;;;;;;7.25;2.97;;;0.70;99.90;;;;;;5060323;28;20032;-82
2024/01/18 09:15:09;;;;;;;4.60;2.33;;;0.80;99.90;;;;;;5054998;28;20522;-83
2024/01/18 09:17:35;;;;;;;6.35;2.20;;;0.80;99.90;;;;;;5072838;28;20028;-83
2024/01/18 09:20:03;;;;;;;3.35;2.05;;;0.80;99.90;;;;;;5073581;28;20069;-84
2024/01/18 09:22:28;;;;;;;4.47;1.90;;;0.80;99.90;;;;;;5072609;28;20465;-85
2024/01/18 09:24:54;;;;;;;7.03;2.33;;;0.90;99.90;;;;;;5072432;28;20108;-83
2024/01/18 09:27:21;;;;;;;5.65;2.28;;;0.90;99.90;;;;;;5053589;28;20071;-82
2024/01/18 09:29:47;;;;;;;5.50;2.67;;;1.00;99.90;;;;;;5068995;28;20549;-83
2024/01/18 09:32:13;;;;;;;2.95;2.38;;;1.00;99.90;;;;;;5070939;28;20029;-84
2024/01/18 09:34:38;;;;;;;3.60;2.53;;;1.00;99.90;;;;;;5057422;28;20206;-86
2024/01/18 09:37:04;;;;;;;5.43;2.42;;;1.30;99.90;;;;;;5072501;28;20027;-86
2024/01/18 09:39:29;;;;;;;4.50;2.17;;;1.10;99.90;;;;;;5073674;28;20119;-87
2024/01/18 09:41:55;;;;;;;6.80;2.20;;;1.20;99.90;;;;;;5072084;28;20025;-87
2024/01/18 09:44:31;;;;;;;7.32;2.10;;;1.20;99.90;;;;;;5074415;28;20032;-89
2024/01/18 09:46:58;;;;;;;5.88;2.63;;;1.20;99.90;;;;;;5073249;28;20016;-83
2024/01/18 09:49:25;;;;;;;5.20;2.30;;;1.20;99.90;;;;;;5074070;28;20024;-87
2024/01/18 09:51:51;;;;;;;5.97;2.90;;;1.20;99.90;;;;;;5073453;28;20605;-87
2024/01/18 09:54:17;;;;;;;5.28;1.70;;;1.20;99.90;;;;;;5058054;28;20043;-88
2024/01/18 09:56:45;;;;;;;6.88;2.42;;;1.20;99.90;;;;;;5069949;28;20404;-89
2024/01/18 09:59:18;;;;;;;7.80;2.20;;;1.20;99.90;;;;;;5073197;28;20100;-87
2024/01/18 10:01:47;;;;;;;5.65;2.55;;;1.20;99.90;;;;;;5073591;28;20060;-86
2024/01/18 10:04:14;;;;;;;6.95;1.90;;;1.20;99.90;;;;;;5073206;28;20020;-85
2024/01/18 10:06:41;;;;;;;13.30;4.57;;;1.20;99.90;;;;;;5072794;28;20102;-88
2024/01/18 10:09:11;;;;;;;4.05;1.92;;;1.70;99.90;;;;;;5073651;28;20142;-88
2024/01/18 10:11:40;;;;;;;5.63;2.38;;;1.30;99.90;;;;;;5057840;28;20040;-87
2024/01/18 10:14:06;;;;;;;7.93;1.88;;;1.40;99.90;;;;;;5065980;28;20029;-86
2024/01/18 10:16:35;;;;;;;5.05;1.60;;;1.50;99.90;;;;;;5070658;28;20131;-87
2024/01/18 10:19:03;;;;;;;8.55;1.75;;;1.60;99.90;;;;;;5072618;28;20051;-88
2024/01/18 10:21:31;;;;;;;5.40;1.90;;;1.70;99.90;;;;;;5072564;28;20055;-88
2024/01/18 10:23:57;;;;;;;8.65;1.50;;;1.70;99.90;;;;;;5073689;28;20047;-87
2024/01/18 10:26:27;;;;;;;2.38;0.88;;;1.80;99.90;;;;;;5074243;28;20068;-87
2024/01/18 10:28:53;;;;;;;3.38;0.80;;;1.80;99.90;;;;;;5086826;28;20105;-87
2024/01/18 10:31:19;;;;;;;4.70;1.02;;;1.80;99.90;;;;;;5076794;28;20092;-86
2024/01/18 10:33:48;;;;;;;4.53;0.98;;;1.80;99.90;;;;;;5071605;28;20056;-87
2024/01/18 10:36:13;;;;;;;3.03;0.80;;;1.90;99.90;;;;;;5081112;28;20028;-87
2024/01/18 10:38:41;;;;;;;3.92;0.90;;;1.90;99.90;;;;;;5082243;28;20028;-86
2024/01/18 10:41:10;;;;;;;4.85;1.30;;;1.90;99.90;;;;;;5087094;28;20044;-87
2024/01/18 10:43:37;;;;;;;4.70;1.48;;;1.90;99.90;;;;;;5075534;28;20701;-88
2024/01/18 10:46:04;;;;;;;4.95;1.00;;;1.90;99.90;;;;;;5070780;28;20036;-88
2024/01/18 10:48:30;;;;;;;2.83;0.93;;;2.00;99.90;;;;;;5070757;28;20361;-87
2024/01/18 10:50:57;;;;;;;3.03;0.60;;;2.00;99.90;;;;;;5069938;28;20020;-88
2024/01/18 10:53:29;;;;;;;5.60;1.00;;;2.00;99.90;;;;;;5070196;28;20037;-88
2024/01/18 10:55:55;;;;;;;5.03;0.85;;;1.90;99.90;;;;;;5071487;28;20024;-88
2024/01/18 10:58:21;;;;;;;2.45;1.55;;;1.90;99.90;;;;;;5069262;28;20349;-88
2024/01/18 11:00:49;;;;;;;5.72;0.80;;;2.00;99.90;;;;;;5063677;28;20113;-87
2024/01/18 11:03:15;;;;;;;6.22;1.60;;;2.10;99.90;;;;;;5069658;28;20020;-87
2024/01/18 11:05:45;;;;;;;6.85;0.80;;;2.10;99.90;;;;;;5070822;28;20048;-87
2024/01/18 11:08:14;;;;;;;6.43;0.90;;;2.20;99.90;;;;;;5067828;28;20518;-85
2024/01/18 11:10:44;;;;;;;7.53;0.98;;;2.20;99.90;;;;;;5062931;28;20452;-86
2024/01/18 11:13:11;;;;;;;3.70;1.10;;;2.30;99.90;;;;;;5070351;28;20115;-85
2024/01/18 11:15:37;;;;;;;8.60;1.10;;;2.30;99.90;;;;;;5054040;28;20048;-85
2024/01/18 11:18:11;;;;;;;4.22;1.10;;;2.40;99.90;;;;;;5062397;28;20028;-87
2024/01/18 11:20:58;;;;;;;4.30;1.10;;;2.40;99.90;;;;;;5071043;28;20205;-87
2024/01/18 11:23:35;;;;;;;2.20;0.82;;;2.50;99.90;;;;;;5071013;28;20085;-87
2024/01/18 11:26:04;;;;;;;4.18;1.50;;;2.50;99.90;;;;;;5060250;28;20531;-84
2024/01/18 11:28:30;;;;;;;4.13;1.17;;;3.20;99.90;;;;;;5050887;28;20075;-85
2024/01/18 11:30:56;;;;;;;4.75;1.27;;;2.50;99.90;;;;;;5063644;28;20024;-87
2024/01/18 11:33:22;;;;;;;3.67;1.27;;;2.60;99.90;;;;;;5071523;28;20189;-85
2024/01/18 11:35:48;;;;;;;4.75;1.20;;;2.60;99.90;;;;;;5070594;28;20031;-86
2024/01/18 11:38:21;;;;;;;8.02;0.80;;;2.70;99.90;;;;;;5069334;28;20047;-85
2024/01/18 11:40:56;;;;;;;4.60;1.20;;;2.80;99.90;;;;;;5062197;28;20041;-87
2024/01/18 11:43:23;;;;;;;4.28;0.75;;;2.80;99.90;;;;;;5062773;28;20025;-90
2024/01/18 11:45:52;;;;;;;4.95;1.20;;;2.90;99.90;;;;;;5069078;28;20029;-83
2024/01/18 11:48:35;;;;;;;2.65;1.00;;;3.00;99.90;;;;;;5070818;28;20036;-86
2024/01/18 11:51:01;;;;;;;2.78;1.10;;;3.00;99.90;;;;;;5065674;28;20036;-87
2024/01/18 11:53:27;;;;;;;4.63;1.90;;;3.00;99.90;;;;;;5057048;28;20043;-86
2024/01/18 11:55:54;;;;;;;3.38;1.15;;;3.10;99.90;;;;;;5072935;28;20029;-87
2024/01/18 11:58:20;;;;;;;3.63;0.90;;;3.10;99.90;;;;;;5085241;28;20025;-89
2024/01/18 12:00:48;;;;;;;7.43;1.60;;;3.10;99.90;;;;;;5065086;28;20052;-89
2024/01/18 12:03:14;;;;;;;7.50;1.10;;;3.20;99.90;;;;;;5063949;28;20496;-90
2024/01/18 12:05:40;;;;;;;6.38;1.40;;;4.30;99.90;;;;;;5071920;28;20031;-90
2024/01/18 12:08:07;;;;;;;2.97;0.60;;;3.30;99.90;;;;;;5064696;28;20067;-90
2024/01/18 12:10:34;;;;;;;2.22;0.90;;;3.20;99.90;;;;;;5081584;28;20052;-90
2024/01/18 12:13:00;;;;;;;2.92;0.95;;;3.30;99.90;;;;;;5085752;28;20028;-89
2024/01/18 12:15:25;;;;;;;2.72;0.73;;;4.40;99.90;;;;;;5085031;28;20039;-88
2024/01/18 12:17:53;;;;;;;3.55;0.60;;;4.30;99.90;;;;;;5077146;28;20472;-90
2024/01/18 12:20:19;;;;;;;2.78;0.82;;;3.20;99.90;;;;;;5070614;28;20132;-89
2024/01/18 12:22:54;;;;;;;5.50;2.05;;;3.20;99.90;;;;;;5071227;28;20379;-90
2024/01/18 12:25:28;;;;;;;3.10;1.02;;;3.00;99.90;;;;;;5055343;28;20028;-89
2024/01/18 12:28:04;;;;;;;1.88;0.80;;;4.20;99.90;;;;;;5057140;28;20105;-89
2024/01/18 12:30:30;;;;;;;0.73;0.40;;;3.10;99.90;;;;;;5061940;28;20260;-86
2024/01/18 12:32:56;;;;;;;0.90;0.60;;;3.10;99.90;;;;;;5054991;28;20025;-87
2024/01/18 12:35:22;;;;;;;2.08;0.75;;;3.10;99.90;;;;;;5059794;28;20354;-87
2024/01/18 12:37:49;;;;;;;1.08;0.68;;;3.70;99.90;;;;;;5059042;28;20540;-87
2024/01/18 12:40:23;;;;;;;1.17;0.70;;;3.20;99.90;;;;;;5056181;28;20041;-87
2024/01/18 12:42:53;;;;;;;2.38;0.80;;;3.20;99.90;;;;;;5055796;28;20047;-88
2024/01/18 12:45:58;;;;;;;0.93;0.45;;;3.20;99.90;;;;;;5067371;28;20094;-87
2024/01/18 12:48:33;;;;;;;0.77;0.65;;;3.20;99.90;;;;;;5049309;28;20025;-87
2024/01/18 12:51:15;;;;;;;2.40;0.70;;;3.30;99.90;;;;;;5060050;28;20032;-88
2024/01/18 12:53:54;;;;;;;3.55;0.50;;;2.80;99.90;;;;;;5058939;28;20032;-87
2024/01/18 12:56:34;;;;;;;3.33;0.60;;;4.00;99.90;;;;;;5075078;28;20022;-88